Terminal Aerodrome Forecast
Issued by NWS

Home | Current Version | Previous Version | Text Only | Print | Product List | Glossary On
Versions: 1 2 3 4 5 6 7 8 9 10 11 12 13 14 15 16 17 18
000
FTAK31 PAFA 261738
TAFABT
TAF
PABT 261738Z 2618/2718 00000KT 1/4SM FG VV002
      TEMPO 2618/2621 1SM BR
     FM262200 23004KT P6SM SCT010 BKN080
     FM270200 24003KT P6SM SCT120
     FM271000 15003KT 2SM BR BKN010=

USA.gov is the U.S. government's official web portal to all federal, state and local government web resources and services.